Time;durP1;ratioP1;P1;durP2;ratioP2;P2;SDS_P1;SDS_P2;PMS_P1;PMS_P2;Temp;Humidity;BMP_temperature;BMP_pressure;BME280_temperature;BME280_humidity;BME280_pressure;Samples;Min_cycle;Max_cycle;Signal;HPM_P1;HPM_P2
2021/01/02 00:01:27;;;;;;;16.70;12.80;;;2.40;99.90;;;;;;5032767;28;20202;-74
2021/01/02 00:04:25;;;;;;;16.63;13.17;;;2.40;99.90;;;;;;5029961;28;20175;-73
2021/01/02 00:06:57;;;;;;;15.50;13.13;;;2.40;99.90;;;;;;5027614;28;20174;-74
2021/01/02 00:09:25;;;;;;;14.23;12.30;;;2.40;99.90;;;;;;5013244;28;20172;-73
2021/01/02 00:12:26;;;;;;;13.53;12.13;;;2.60;99.90;;;;;;5013106;28;20679;-73
2021/01/02 00:15:14;;;;;;;14.23;11.93;;;2.40;99.90;;;;;;5000058;28;20237;-74
2021/01/02 00:18:04;;;;;;;15.13;12.33;;;2.50;99.90;;;;;;5013245;28;20191;-73
2021/01/02 00:20:44;;;;;;;14.87;12.93;;;2.50;99.90;;;;;;5013126;28;20171;-73
2021/01/02 00:23:33;;;;;;;15.87;13.70;;;2.50;99.90;;;;;;5013102;28;20190;-73
2021/01/02 00:26:14;;;;;;;16.10;13.63;;;2.50;99.90;;;;;;5015620;28;20253;-74
2021/01/02 00:28:46;;;;;;;14.37;12.63;;;2.50;99.90;;;;;;5013482;28;20201;-74
2021/01/02 00:31:12;;;;;;;17.17;14.07;;;2.50;99.90;;;;;;5013340;28;20183;-73
2021/01/02 00:33:43;;;;;;;14.17;12.57;;;2.50;99.90;;;;;;5012853;28;20175;-73
2021/01/02 00:36:24;;;;;;;16.33;13.40;;;2.50;99.90;;;;;;5012941;28;20189;-73
2021/01/02 00:38:50;;;;;;;15.77;12.93;;;2.40;99.90;;;;;;5012814;28;20269;-73
2021/01/02 00:41:20;;;;;;;17.17;13.33;;;2.40;99.90;;;;;;4993447;28;20190;-73
2021/01/02 00:43:46;;;;;;;15.33;12.87;;;2.40;99.90;;;;;;5001672;28;20171;-73
2021/01/02 00:46:12;;;;;;;16.00;13.17;;;2.50;99.90;;;;;;5016501;28;20175;-73
2021/01/02 00:48:40;;;;;;;15.67;12.63;;;2.40;99.90;;;;;;5016441;28;20542;-74
2021/01/02 00:51:09;;;;;;;14.30;12.80;;;2.40;99.90;;;;;;5016399;28;20175;-73
2021/01/02 00:54:06;;;;;;;16.90;13.17;;;2.40;99.90;;;;;;5016196;28;20187;-73
2021/01/02 00:56:41;;;;;;;18.23;13.67;;;2.40;99.90;;;;;;5016188;28;20179;-73
2021/01/02 00:59:48;;;;;;;15.67;12.80;;;2.40;99.90;;;;;;5016149;28;20642;-74
2021/01/02 01:02:16;;;;;;;15.10;12.63;;;2.40;99.90;;;;;;5016159;28;20205;-73
2021/01/02 01:04:51;;;;;;;19.37;14.37;;;2.30;99.90;;;;;;5016234;28;20257;-72
2021/01/02 01:07:18;;;;;;;16.63;12.90;;;2.40;99.90;;;;;;5015943;28;20691;-73
2021/01/02 01:09:50;;;;;;;13.83;12.33;;;2.40;99.90;;;;;;5016211;28;20175;-74
2021/01/02 01:12:19;;;;;;;14.73;12.33;;;2.40;99.90;;;;;;5016257;28;20229;-73
2021/01/02 01:14:48;;;;;;;15.80;12.80;;;2.40;99.90;;;;;;5014615;28;20670;-73
2021/01/02 01:17:28;;;;;;;14.00;11.87;;;2.40;99.90;;;;;;5014723;28;20716;-74
2021/01/02 01:19:57;;;;;;;13.83;11.80;;;2.30;99.90;;;;;;5015893;28;20257;-73
2021/01/02 01:22:25;;;;;;;13.83;12.03;;;2.30;99.90;;;;;;5016096;28;20195;-74
2021/01/02 01:25:04;;;;;;;16.60;12.77;;;2.40;99.90;;;;;;5017809;28;20662;-73
2021/01/02 01:27:59;;;;;;;14.03;12.10;;;2.30;99.90;;;;;;5018745;28;20187;-74
2021/01/02 01:30:38;;;;;;;13.70;12.17;;;2.30;99.90;;;;;;5015284;28;20191;-73
2021/01/02 01:33:04;;;;;;;16.30;12.00;;;2.30;99.90;;;;;;5010050;28;20188;-74
2021/01/02 01:35:30;;;;;;;13.23;11.80;;;2.30;99.90;;;;;;5015790;28;20187;-73
2021/01/02 01:37:57;;;;;;;12.97;11.13;;;2.30;99.90;;;;;;5016794;28;20697;-73
2021/01/02 01:40:25;;;;;;;14.57;12.07;;;2.30;99.90;;;;;;5015642;28;20207;-73
2021/01/02 01:43:19;;;;;;;13.93;12.00;;;2.40;99.90;;;;;;5015412;28;20256;-75
2021/01/02 01:46:16;;;;;;;14.47;11.73;;;2.30;99.90;;;;;;5014125;28;20230;-72
2021/01/02 01:49:06;;;;;;;12.43;11.17;;;2.30;99.90;;;;;;5015203;28;20278;-73
2021/01/02 01:51:39;;;;;;;14.23;11.57;;;2.30;99.90;;;;;;5009954;28;20183;-74
2021/01/02 01:54:38;;;;;;;15.90;12.47;;;2.30;99.90;;;;;;5015194;28;20242;-73
2021/01/02 01:57:05;;;;;;;16.23;13.23;;;2.30;99.90;;;;;;5015248;28;20297;-74
2021/01/02 01:59:56;;;;;;;15.40;13.03;;;2.20;99.90;;;;;;5015081;28;20184;-73
2021/01/02 02:02:48;;;;;;;16.03;12.83;;;2.20;99.90;;;;;;4996020;28;20666;-74
2021/01/02 02:05:22;;;;;;;16.20;13.03;;;2.20;99.90;;;;;;4999616;28;20190;-74
2021/01/02 02:08:01;;;;;;;17.27;12.70;;;2.30;99.90;;;;;;5014966;28;20194;-72
2021/01/02 02:10:30;;;;;;;17.77;12.90;;;2.30;99.90;;;;;;5013621;28;20658;-74
2021/01/02 02:13:10;;;;;;;15.83;12.80;;;2.30;99.90;;;;;;5014815;28;20171;-74
2021/01/02 02:15:50;;;;;;;17.27;13.30;;;2.30;99.90;;;;;;5014357;28;20262;-73
2021/01/02 02:18:26;;;;;;;19.43;13.93;;;2.20;99.90;;;;;;5014736;28;20677;-73
2021/01/02 02:20:57;;;;;;;16.00;12.93;;;2.20;99.90;;;;;;5014823;28;20187;-74
2021/01/02 02:23:42;;;;;;;17.50;13.10;;;2.20;99.90;;;;;;5021659;28;20249;-73
2021/01/02 02:26:26;;;;;;;26.60;16.10;;;2.20;99.90;;;;;;5020344;28;20221;-74
2021/01/02 02:29:13;;;;;;;15.00;12.07;;;2.20;99.90;;;;;;5014624;28;20263;-74
2021/01/02 02:31:46;;;;;;;23.97;15.33;;;2.20;99.90;;;;;;5014813;28;20183;-72
2021/01/02 02:34:15;;;;;;;17.97;14.47;;;2.20;99.90;;;;;;5014645;28;20207;-73
2021/01/02 02:36:42;;;;;;;35.50;19.37;;;2.20;99.90;;;;;;5014363;28;20206;-72
2021/01/02 02:39:13;;;;;;;23.67;15.43;;;2.30;99.90;;;;;;5014461;28;20179;-74
2021/01/02 02:41:47;;;;;;;18.77;14.00;;;2.20;99.90;;;;;;5014465;28;20610;-73
2021/01/02 02:44:17;;;;;;;36.13;20.53;;;2.20;99.90;;;;;;5013189;28;20178;-73
2021/01/02 02:46:45;;;;;;;18.23;14.13;;;2.20;99.90;;;;;;5014097;28;20175;-72
2021/01/02 02:49:16;;;;;;;13.97;12.03;;;2.20;99.90;;;;;;5014280;28;20214;-73
2021/01/02 02:51:56;;;;;;;14.77;12.43;;;2.20;99.90;;;;;;5014150;28;20321;-73
2021/01/02 02:54:23;;;;;;;16.00;13.33;;;2.20;99.90;;;;;;5014497;28;20187;-73
2021/01/02 02:56:49;;;;;;;18.80;14.37;;;2.20;99.90;;;;;;5013754;28;20179;-74
2021/01/02 02:59:15;;;;;;;18.63;14.40;;;2.20;99.90;;;;;;5013993;28;20203;-74
2021/01/02 03:01:41;;;;;;;19.60;15.23;;;2.10;99.90;;;;;;5014083;28;20214;-73
2021/01/02 03:04:07;;;;;;;15.00;12.27;;;2.20;99.90;;;;;;5014147;28;20254;-73
2021/01/02 03:06:33;;;;;;;17.03;13.90;;;2.20;99.90;;;;;;5013777;28;20269;-72
2021/01/02 03:08:59;;;;;;;14.60;12.27;;;2.20;99.90;;;;;;5013765;28;20179;-72
2021/01/02 03:11:25;;;;;;;14.67;12.13;;;2.20;99.90;;;;;;5013975;28;20177;-73
2021/01/02 03:13:52;;;;;;;15.10;12.93;;;2.20;99.90;;;;;;5013757;28;20217;-72
2021/01/02 03:16:20;;;;;;;16.83;13.73;;;2.20;99.90;;;;;;5000610;28;20194;-73
2021/01/02 03:18:46;;;;;;;15.73;12.40;;;2.20;99.90;;;;;;5002682;28;20234;-73
2021/01/02 03:21:12;;;;;;;18.73;13.80;;;2.20;99.90;;;;;;5011481;28;20194;-73
2021/01/02 03:23:46;;;;;;;17.17;13.40;;;2.20;99.90;;;;;;5011107;28;20189;-73
2021/01/02 03:26:13;;;;;;;20.17;13.63;;;2.10;99.90;;;;;;5013833;28;20182;-73
2021/01/02 03:28:38;;;;;;;17.23;13.53;;;2.10;99.90;;;;;;5013525;28;20196;-73
2021/01/02 03:31:04;;;;;;;18.27;13.40;;;2.10;99.90;;;;;;5025437;28;20188;-73
2021/01/02 03:33:30;;;;;;;22.33;15.50;;;2.10;99.90;;;;;;5012530;28;20179;-73
2021/01/02 03:36:01;;;;;;;17.80;13.60;;;2.10;99.90;;;;;;5012652;28;20188;-73
2021/01/02 03:38:31;;;;;;;18.10;13.63;;;2.20;99.90;;;;;;5013311;28;20270;-73
2021/01/02 03:40:58;;;;;;;18.33;13.93;;;2.20;99.90;;;;;;5013665;28;20186;-73
2021/01/02 03:43:24;;;;;;;20.57;14.67;;;2.20;99.90;;;;;;5012478;28;20233;-73
2021/01/02 03:45:50;;;;;;;22.83;14.50;;;2.20;99.90;;;;;;5013472;28;20585;-73
2021/01/02 03:48:16;;;;;;;20.30;14.60;;;2.20;99.90;;;;;;5012016;28;20669;-72
2021/01/02 03:50:41;;;;;;;18.30;13.63;;;2.10;99.90;;;;;;5012128;28;20262;-73
2021/01/02 03:53:07;;;;;;;19.43;14.17;;;2.10;99.90;;;;;;5013383;28;20206;-73
2021/01/02 03:55:33;;;;;;;19.77;14.73;;;2.10;99.90;;;;;;5013281;28;20190;-73
2021/01/02 03:57:58;;;;;;;19.43;14.63;;;2.10;99.90;;;;;;5012909;28;20690;-73
2021/01/02 04:00:24;;;;;;;17.60;13.83;;;2.10;99.90;;;;;;5013238;28;20194;-73
2021/01/02 04:02:50;;;;;;;20.57;15.40;;;2.10;99.90;;;;;;5013194;28;20289;-73
2021/01/02 04:05:15;;;;;;;17.60;14.47;;;2.00;99.90;;;;;;5013239;28;20597;-72
2021/01/02 04:07:41;;;;;;;19.10;14.90;;;2.00;99.90;;;;;;5013135;28;20245;-73
2021/01/02 04:10:07;;;;;;;20.60;15.00;;;2.10;99.90;;;;;;5013352;28;20179;-72
2021/01/02 04:12:33;;;;;;;20.03;14.43;;;2.10;99.90;;;;;;5012960;28;20229;-73
2021/01/02 04:14:59;;;;;;;19.97;14.80;;;2.10;99.90;;;;;;5011952;28;20175;-73
2021/01/02 04:17:24;;;;;;;19.23;14.47;;;2.10;99.90;;;;;;5013092;28;20234;-73
2021/01/02 04:19:50;;;;;;;22.37;15.77;;;2.10;99.90;;;;;;5015534;28;20585;-73
2021/01/02 04:22:16;;;;;;;21.80;15.47;;;2.10;99.90;;;;;;5017198;28;20210;-73
2021/01/02 04:24:42;;;;;;;19.90;14.97;;;2.10;99.90;;;;;;5015639;28;20179;-72
2021/01/02 04:27:07;;;;;;;21.33;15.80;;;2.10;99.90;;;;;;5022373;28;20673;-73
2021/01/02 04:29:33;;;;;;;22.03;16.53;;;2.10;99.90;;;;;;5022069;28;20676;-72
2021/01/02 04:32:00;;;;;;;22.63;15.43;;;2.00;99.90;;;;;;5017016;28;20183;-72
2021/01/02 04:34:27;;;;;;;20.10;15.40;;;2.00;99.90;;;;;;5016804;28;20202;-73
2021/01/02 04:36:53;;;;;;;20.53;14.80;;;2.00;99.90;;;;;;5015370;28;20207;-71
2021/01/02 04:39:20;;;;;;;22.30;15.87;;;2.00;99.90;;;;;;5016863;28;20728;-72
2021/01/02 04:41:46;;;;;;;20.77;15.33;;;2.10;99.90;;;;;;5016423;28;20195;-72
2021/01/02 04:44:13;;;;;;;21.43;15.57;;;2.00;99.90;;;;;;5016504;28;20650;-72
2021/01/02 04:46:43;;;;;;;20.67;15.07;;;2.00;99.90;;;;;;5016579;28;20186;-72
2021/01/02 04:49:09;;;;;;;21.93;15.83;;;2.00;99.90;;;;;;5015084;28;20175;-71
2021/01/02 04:51:35;;;;;;;21.50;15.00;;;2.00;99.90;;;;;;5016431;28;20547;-72
2021/01/02 04:54:05;;;;;;;23.03;16.03;;;2.00;99.90;;;;;;5016624;28;20190;-72
2021/01/02 04:56:38;;;;;;;23.77;16.37;;;2.00;99.90;;;;;;5016652;28;20175;-72
2021/01/02 04:59:09;;;;;;;24.43;16.57;;;2.00;99.90;;;;;;5016304;28;20214;-72
2021/01/02 05:01:40;;;;;;;22.17;16.10;;;2.00;99.90;;;;;;5008921;28;20662;-72
2021/01/02 05:04:09;;;;;;;23.17;15.50;;;2.00;99.90;;;;;;5002070;28;20171;-72
2021/01/02 05:06:36;;;;;;;24.47;16.77;;;2.00;99.90;;;;;;5008724;28;20193;-72
2021/01/02 05:09:05;;;;;;;22.17;16.33;;;1.90;99.90;;;;;;5014822;28;20178;-72
2021/01/02 05:11:38;;;;;;;25.33;16.87;;;1.90;99.90;;;;;;5013619;28;20179;-72
2021/01/02 05:14:05;;;;;;;20.83;15.33;;;1.90;99.90;;;;;;5016294;28;20551;-72
2021/01/02 05:16:41;;;;;;;21.57;15.60;;;1.90;99.90;;;;;;5015254;28;20194;-72
2021/01/02 05:19:12;;;;;;;20.03;14.37;;;1.90;99.90;;;;;;5016079;28;20206;-73
2021/01/02 05:21:48;;;;;;;21.50;14.77;;;1.90;99.90;;;;;;5015779;28;20187;-73
2021/01/02 05:24:21;;;;;;;21.20;14.57;;;2.00;99.90;;;;;;5015782;28;20175;-72
2021/01/02 05:26:58;;;;;;;20.00;14.63;;;1.90;99.90;;;;;;5014387;28;20544;-73
2021/01/02 05:29:25;;;;;;;24.50;15.93;;;1.90;99.90;;;;;;5015764;28;20175;-73
2021/01/02 05:31:50;;;;;;;20.03;14.43;;;1.90;99.90;;;;;;5021334;28;20170;-73
2021/01/02 05:34:19;;;;;;;17.80;14.13;;;1.90;99.90;;;;;;5024115;28;20707;-72
2021/01/02 05:36:45;;;;;;;18.40;13.83;;;2.10;99.90;;;;;;5015736;28;20250;-73
2021/01/02 05:39:16;;;;;;;17.47;13.80;;;1.90;99.90;;;;;;5014672;28;20187;-73
2021/01/02 05:41:47;;;;;;;20.00;15.00;;;1.90;99.90;;;;;;5015782;28;20289;-72
2021/01/02 05:44:14;;;;;;;18.10;13.53;;;1.90;99.90;;;;;;5015317;28;20529;-73
2021/01/02 05:46:53;;;;;;;20.13;14.53;;;1.90;99.90;;;;;;5015270;28;20206;-72
2021/01/02 05:49:34;;;;;;;18.37;14.07;;;1.90;99.90;;;;;;5014172;28;20198;-72
2021/01/02 05:52:02;;;;;;;19.73;13.50;;;1.90;99.90;;;;;;5015509;28;20167;-72
2021/01/02 05:54:29;;;;;;;18.10;13.67;;;1.90;99.90;;;;;;5015399;28;20183;-72
2021/01/02 05:57:00;;;;;;;16.67;13.83;;;1.90;99.90;;;;;;5014800;28;20226;-72
2021/01/02 05:59:34;;;;;;;19.70;13.23;;;1.90;99.90;;;;;;5036208;23;20299;-76
2021/01/02 06:02:23;;;;;;;23.23;15.53;;;1.90;99.90;;;;;;5008443;28;20353;-76
2021/01/02 06:04:56;;;;;;;20.07;14.57;;;1.80;99.90;;;;;;5017321;28;20205;-76
2021/01/02 06:07:22;;;;;;;19.40;14.17;;;1.80;99.90;;;;;;5024185;28;20177;-76
2021/01/02 06:09:48;;;;;;;26.40;16.73;;;1.80;99.90;;;;;;4999506;28;20203;-76
2021/01/02 06:12:30;;;;;;;15.63;13.20;;;1.80;99.90;;;;;;4995191;28;20187;-76
2021/01/02 06:15:02;;;;;;;20.27;14.00;;;1.80;99.90;;;;;;4995510;28;20180;-76
2021/01/02 06:17:34;;;;;;;21.03;14.57;;;1.80;99.90;;;;;;4998719;28;20264;-76
2021/01/02 06:20:03;;;;;;;20.50;15.60;;;1.80;99.90;;;;;;4995628;28;20218;-76
2021/01/02 06:22:30;;;;;;;20.60;14.73;;;1.80;99.90;;;;;;4996855;28;20210;-76
2021/01/02 06:24:57;;;;;;;26.73;17.53;;;1.90;99.90;;;;;;4994988;28;20183;-76
2021/01/02 06:27:23;;;;;;;24.87;15.27;;;1.90;99.90;;;;;;4993640;28;20254;-76
2021/01/02 06:30:03;;;;;;;22.00;15.80;;;1.80;99.90;;;;;;4994787;28;20197;-75
2021/01/02 06:32:29;;;;;;;20.37;14.83;;;1.90;99.90;;;;;;4994774;28;20180;-76
2021/01/02 06:35:10;;;;;;;22.07;15.63;;;1.90;99.90;;;;;;4994805;28;20184;-76
2021/01/02 06:37:47;;;;;;;20.73;14.97;;;1.90;99.90;;;;;;4994763;28;20184;-76
2021/01/02 06:40:28;;;;;;;23.07;16.17;;;1.90;99.90;;;;;;4994485;28;20254;-76
2021/01/02 06:43:01;;;;;;;22.87;16.27;;;1.90;99.90;;;;;;4994615;28;20199;-76
2021/01/02 06:45:36;;;;;;;21.90;15.87;;;1.90;99.90;;;;;;4994804;28;20723;-76
2021/01/02 06:48:17;;;;;;;20.77;15.80;;;1.90;99.90;;;;;;4994714;28;20171;-76
2021/01/02 06:50:43;;;;;;;21.67;15.70;;;1.90;99.90;;;;;;4994742;28;20171;-75
2021/01/02 06:53:25;;;;;;;23.40;15.93;;;1.80;99.90;;;;;;4994530;28;20183;-75
2021/01/02 06:56:02;;;;;;;26.53;15.63;;;1.90;99.90;;;;;;4989937;28;20180;-76
2021/01/02 06:58:42;;;;;;;24.60;17.20;;;1.90;99.90;;;;;;4992016;28;20282;-76
2021/01/02 07:01:29;;;;;;;24.60;16.93;;;1.80;99.90;;;;;;4994360;28;20176;-76
2021/01/02 07:03:58;;;;;;;20.73;15.40;;;1.90;99.90;;;;;;4982607;28;20214;-76
2021/01/02 07:06:25;;;;;;;24.57;16.73;;;1.80;99.90;;;;;;4992955;28;20267;-76
2021/01/02 07:08:55;;;;;;;24.90;17.27;;;1.80;99.90;;;;;;4980408;28;20207;-75
2021/01/02 07:11:23;;;;;;;20.97;15.10;;;1.80;99.90;;;;;;4990845;28;20259;-76
2021/01/02 07:14:09;;;;;;;21.53;15.60;;;1.80;99.90;;;;;;4977481;28;20659;-76
2021/01/02 07:17:02;;;;;;;21.90;15.47;;;1.90;99.90;;;;;;4974657;28;20554;-76
2021/01/02 07:19:40;;;;;;;21.43;16.17;;;1.80;99.90;;;;;;4982045;28;20196;-76
2021/01/02 07:22:10;;;;;;;23.90;15.87;;;1.80;99.90;;;;;;4993944;28;20215;-76
2021/01/02 07:24:45;;;;;;;21.87;15.47;;;1.90;99.90;;;;;;4993889;28;20182;-76
2021/01/02 07:27:16;;;;;;;21.93;16.03;;;1.90;99.90;;;;;;4992664;28;20199;-76
2021/01/02 07:29:43;;;;;;;21.33;14.30;;;1.90;99.90;;;;;;4995096;28;20196;-76
2021/01/02 07:32:14;;;;;;;19.83;15.47;;;1.90;99.90;;;;;;4988530;28;20175;-76
2021/01/02 07:34:41;;;;;;;20.27;14.57;;;1.90;99.90;;;;;;4994121;28;20176;-76
2021/01/02 07:37:10;;;;;;;20.70;15.23;;;1.90;99.90;;;;;;4993885;28;20183;-76
2021/01/02 07:39:36;;;;;;;22.43;16.23;;;1.90;99.90;;;;;;4992404;28;20219;-76
2021/01/02 07:42:11;;;;;;;23.50;15.53;;;1.90;99.90;;;;;;4992509;28;20253;-76
2021/01/02 07:44:39;;;;;;;23.60;15.90;;;1.90;99.90;;;;;;4993716;28;20180;-76
2021/01/02 07:47:06;;;;;;;24.83;16.70;;;1.90;99.90;;;;;;4993913;28;20533;-76
2021/01/02 07:49:33;;;;;;;21.97;16.17;;;1.90;99.90;;;;;;4993590;28;20751;-76
2021/01/02 07:51:58;;;;;;;20.20;14.73;;;1.90;99.90;;;;;;4993767;28;20186;-76
2021/01/02 07:54:35;;;;;;;22.67;16.20;;;1.90;99.90;;;;;;4996645;28;20175;-76
2021/01/02 07:57:06;;;;;;;22.83;15.67;;;1.90;99.90;;;;;;4987355;28;20582;-76
2021/01/02 07:59:37;;;;;;;23.27;16.07;;;1.90;99.90;;;;;;4997536;28;20584;-76
2021/01/02 08:02:08;;;;;;;24.17;16.23;;;2.00;99.90;;;;;;4997864;28;20686;-76
2021/01/02 08:04:36;;;;;;;19.23;14.53;;;1.90;99.90;;;;;;4997228;28;20529;-76
2021/01/02 08:07:04;;;;;;;22.97;15.97;;;1.90;99.90;;;;;;4996053;28;20183;-76
2021/01/02 08:09:32;;;;;;;25.07;15.97;;;1.90;99.90;;;;;;4999568;28;20203;-76
2021/01/02 08:12:08;;;;;;;21.50;15.23;;;1.90;99.90;;;;;;4998368;28;20211;-76
2021/01/02 08:14:36;;;;;;;25.30;15.80;;;1.90;99.90;;;;;;4997449;28;20191;-76
2021/01/02 08:17:09;;;;;;;26.93;17.10;;;1.90;99.90;;;;;;4997379;28;20612;-76
2021/01/02 08:19:38;;;;;;;24.10;15.97;;;2.00;99.90;;;;;;4997428;28;20222;-76
2021/01/02 08:22:07;;;;;;;27.00;16.77;;;2.00;99.90;;;;;;4997402;28;20557;-76
2021/01/02 08:24:32;;;;;;;25.80;16.37;;;2.00;99.90;;;;;;4995997;28;20234;-76
2021/01/02 08:27:01;;;;;;;24.40;16.13;;;2.00;99.90;;;;;;4992118;28;20188;-76
2021/01/02 08:29:28;;;;;;;36.30;21.27;;;1.90;99.90;;;;;;4998942;28;20192;-76
2021/01/02 08:31:58;;;;;;;25.30;16.93;;;1.90;99.90;;;;;;4979241;28;20267;-76
2021/01/02 08:34:30;;;;;;;24.07;16.20;;;1.90;99.90;;;;;;4983310;28;20172;-76
2021/01/02 08:37:22;;;;;;;24.60;16.70;;;1.90;99.90;;;;;;4992695;28;20184;-76
2021/01/02 08:40:08;;;;;;;23.93;16.37;;;1.90;99.90;;;;;;4995284;28;20206;-76
2021/01/02 08:42:41;;;;;;;24.23;16.33;;;2.00;99.90;;;;;;4996778;28;20275;-76
2021/01/02 08:45:09;;;;;;;23.70;16.00;;;2.00;99.90;;;;;;4996923;28;20254;-76
2021/01/02 08:47:37;;;;;;;22.73;16.23;;;2.00;99.90;;;;;;4997081;28;20187;-76
2021/01/02 08:50:12;;;;;;;22.60;15.33;;;2.00;99.90;;;;;;4996750;28;20242;-76
2021/01/02 08:52:38;;;;;;;26.27;16.50;;;2.00;99.90;;;;;;4996623;28;20182;-76
2021/01/02 08:55:10;;;;;;;24.10;16.37;;;2.00;99.90;;;;;;4996721;28;20556;-76
2021/01/02 08:57:50;;;;;;;23.70;15.80;;;2.00;99.90;;;;;;4996919;28;20182;-75
2021/01/02 09:00:22;;;;;;;24.60;16.93;;;2.00;99.90;;;;;;4996376;28;20681;-75
2021/01/02 09:02:52;;;;;;;26.10;17.63;;;2.00;99.90;;;;;;4994724;28;20199;-75
2021/01/02 09:05:29;;;;;;;25.33;18.43;;;2.00;99.90;;;;;;4996287;28;20231;-76
2021/01/02 09:08:01;;;;;;;24.63;15.13;;;2.00;99.90;;;;;;4996714;28;20175;-76
2021/01/02 09:10:30;;;;;;;23.53;16.07;;;2.00;99.90;;;;;;4996718;28;20175;-76
2021/01/02 09:13:16;;;;;;;24.60;15.80;;;2.00;99.90;;;;;;4996492;28;20545;-76
2021/01/02 09:16:01;;;;;;;27.80;16.73;;;1.90;99.90;;;;;;4996354;28;20183;-76
2021/01/02 09:18:27;;;;;;;23.67;16.53;;;2.10;99.90;;;;;;4996511;28;20203;-76
2021/01/02 09:20:53;;;;;;;23.53;15.97;;;1.90;99.90;;;;;;4994963;28;20246;-75
2021/01/02 09:23:39;;;;;;;20.90;15.33;;;1.90;99.90;;;;;;4998828;28;20199;-76
2021/01/02 09:26:23;;;;;;;23.90;16.17;;;1.90;99.90;;;;;;4982569;28;20179;-76
2021/01/02 09:28:50;;;;;;;23.13;16.13;;;2.00;99.90;;;;;;4995968;28;20199;-76
2021/01/02 09:31:16;;;;;;;22.07;15.43;;;2.00;99.90;;;;;;4996240;28;20234;-75
2021/01/02 09:33:41;;;;;;;22.93;15.20;;;2.00;99.90;;;;;;4994868;28;20175;-76
2021/01/02 09:36:07;;;;;;;24.63;15.33;;;2.00;99.90;;;;;;4995928;28;20200;-76
2021/01/02 09:38:34;;;;;;;24.77;16.10;;;2.00;99.90;;;;;;4995868;28;20722;-76
2021/01/02 09:41:00;;;;;;;20.90;15.90;;;2.00;99.90;;;;;;4994651;28;20784;-76
2021/01/02 09:43:27;;;;;;;21.23;15.07;;;2.00;99.90;;;;;;4996132;28;20199;-75
2021/01/02 09:45:53;;;;;;;33.70;21.87;;;2.00;99.90;;;;;;4994626;28;20184;-76
2021/01/02 09:48:19;;;;;;;25.13;15.93;;;1.90;99.90;;;;;;4990626;28;20211;-76
2021/01/02 09:50:45;;;;;;;24.57;15.33;;;1.90;99.90;;;;;;4989060;28;20176;-76
2021/01/02 09:53:11;;;;;;;23.07;16.27;;;1.90;99.90;;;;;;4995625;28;20182;-76
2021/01/02 09:55:38;;;;;;;22.93;14.97;;;2.00;99.90;;;;;;4995311;28;20184;-76
2021/01/02 09:58:04;;;;;;;25.07;16.10;;;2.00;99.90;;;;;;4995077;28;20662;-75
2021/01/02 10:00:30;;;;;;;19.83;14.23;;;2.00;99.90;;;;;;4995635;28;20188;-75
2021/01/02 10:02:57;;;;;;;21.10;14.17;;;2.00;99.90;;;;;;4995651;28;20318;-75
2021/01/02 10:05:24;;;;;;;16.40;12.90;;;2.00;99.90;;;;;;4995738;28;20176;-75
2021/01/02 10:07:51;;;;;;;21.53;13.93;;;2.00;99.90;;;;;;4995298;28;20716;-75
2021/01/02 10:10:18;;;;;;;14.60;12.07;;;2.00;99.90;;;;;;4995436;28;20196;-76
2021/01/02 10:12:45;;;;;;;20.50;15.03;;;2.00;99.90;;;;;;4995462;28;20180;-76
2021/01/02 10:15:12;;;;;;;16.60;13.60;;;2.10;99.90;;;;;;4993709;28;20184;-75
2021/01/02 10:17:38;;;;;;;18.93;12.73;;;2.00;99.90;;;;;;4995036;28;20190;-75
2021/01/02 10:20:05;;;;;;;16.20;12.47;;;2.00;99.90;;;;;;4995282;28;20206;-75
2021/01/02 10:22:31;;;;;;;25.20;14.93;;;2.00;99.90;;;;;;4995246;28;20225;-76
2021/01/02 10:24:57;;;;;;;18.83;12.53;;;2.00;99.90;;;;;;4995344;28;20179;-76
2021/01/02 10:27:25;;;;;;;16.80;12.10;;;2.00;99.90;;;;;;4995851;28;20248;-75
2021/01/02 10:29:53;;;;;;;24.97;14.27;;;2.00;99.90;;;;;;4993073;28;20246;-76
2021/01/02 10:32:23;;;;;;;16.53;12.57;;;2.10;99.90;;;;;;4993792;28;20670;-76
2021/01/02 10:34:49;;;;;;;15.13;11.43;;;2.10;99.90;;;;;;4993291;28;20179;-75
2021/01/02 10:37:21;;;;;;;17.17;12.40;;;2.00;99.90;;;;;;4994786;28;20186;-76
2021/01/02 10:39:48;;;;;;;14.30;12.07;;;2.00;99.90;;;;;;4994663;28;20713;-75
2021/01/02 10:42:20;;;;;;;47.73;29.17;;;1.90;99.90;;;;;;4992076;28;20211;-75
2021/01/02 10:44:46;;;;;;;18.30;14.77;;;2.00;99.90;;;;;;4994413;28;20659;-75
2021/01/02 10:47:20;;;;;;;12.47;10.73;;;1.90;99.90;;;;;;4994690;28;20182;-75
2021/01/02 10:49:47;;;;;;;14.47;12.27;;;2.00;99.90;;;;;;4994747;28;20188;-75
2021/01/02 10:52:15;;;;;;;13.57;11.20;;;2.00;99.90;;;;;;4994529;28;20593;-76
2021/01/02 10:54:43;;;;;;;13.50;11.03;;;2.00;99.90;;;;;;4994598;28;20176;-76
2021/01/02 10:57:09;;;;;;;14.33;12.10;;;2.00;99.90;;;;;;4994752;28;20262;-76
2021/01/02 10:59:34;;;;;;;17.70;13.40;;;2.00;99.90;;;;;;4994182;28;20302;-76
2021/01/02 11:02:00;;;;;;;14.57;12.63;;;2.00;99.90;;;;;;4994146;28;20682;-75
2021/01/02 11:04:27;;;;;;;14.27;11.33;;;2.10;99.90;;;;;;4994286;28;20199;-75
2021/01/02 11:06:54;;;;;;;11.67;10.07;;;2.10;99.90;;;;;;4992873;28;20176;-76
2021/01/02 11:09:22;;;;;;;18.23;11.87;;;2.10;99.90;;;;;;4994261;28;20693;-76
2021/01/02 11:11:49;;;;;;;15.10;11.13;;;2.20;99.90;;;;;;4985728;28;20181;-77
2021/01/02 11:14:15;;;;;;;12.17;10.73;;;2.20;99.90;;;;;;4999927;28;20222;-74
2021/01/02 11:16:43;;;;;;;11.87;10.43;;;2.20;99.90;;;;;;4998801;28;20180;-75
2021/01/02 11:19:11;;;;;;;12.73;10.70;;;2.20;99.90;;;;;;4997073;28;20289;-75
2021/01/02 11:21:37;;;;;;;14.77;11.03;;;2.30;99.90;;;;;;5010545;28;20203;-74
2021/01/02 11:24:03;;;;;;;12.60;10.37;;;2.30;99.90;;;;;;5004963;28;20179;-76
2021/01/02 11:26:29;;;;;;;12.70;10.43;;;2.40;99.90;;;;;;4994061;28;20259;-76
2021/01/02 11:28:55;;;;;;;11.47;9.73;;;2.40;99.90;;;;;;4994687;28;20298;-76
2021/01/02 11:31:31;;;;;;;11.87;10.27;;;2.40;99.90;;;;;;4993941;28;20184;-76
2021/01/02 11:33:58;;;;;;;17.83;13.40;;;2.40;99.90;;;;;;4992961;28;20552;-76
2021/01/02 11:36:24;;;;;;;12.27;10.20;;;2.40;99.90;;;;;;4994072;28;20203;-76
2021/01/02 11:38:50;;;;;;;12.97;10.97;;;2.40;99.90;;;;;;4993731;28;20218;-76
2021/01/02 11:41:29;;;;;;;10.20;9.20;;;2.40;99.90;;;;;;4992378;28;20255;-76
2021/01/02 11:43:55;;;;;;;11.87;9.60;;;2.50;99.90;;;;;;4993884;28;20620;-76
2021/01/02 11:46:42;;;;;;;10.33;9.23;;;2.50;99.90;;;;;;4992201;28;20210;-76
2021/01/02 11:49:11;;;;;;;11.10;9.97;;;2.50;99.90;;;;;;4989221;28;20227;-76
2021/01/02 11:51:37;;;;;;;10.97;9.83;;;2.50;99.90;;;;;;4980184;28;20180;-76
2021/01/02 11:54:04;;;;;;;11.10;9.70;;;2.40;99.90;;;;;;4993702;28;20324;-76
2021/01/02 11:56:30;;;;;;;14.10;9.57;;;2.40;99.90;;;;;;4993595;28;20176;-75
2021/01/02 11:59:00;;;;;;;10.77;9.63;;;2.40;99.90;;;;;;4993421;28;20223;-76
2021/01/02 12:01:43;;;;;;;10.20;9.20;;;2.40;99.90;;;;;;5033250;22;20228;-73
2021/01/02 12:04:13;;;;;;;16.77;12.00;;;2.40;99.90;;;;;;5033164;28;20178;-73
2021/01/02 12:06:39;;;;;;;12.07;9.47;;;2.40;99.90;;;;;;5050126;28;20637;-73
2021/01/02 12:09:07;;;;;;;10.33;9.20;;;2.50;99.90;;;;;;5039021;28;20193;-72
2021/01/02 12:11:35;;;;;;;12.70;10.23;;;2.50;99.90;;;;;;5040068;28;20242;-72
2021/01/02 12:14:02;;;;;;;12.20;10.93;;;2.50;99.90;;;;;;5045722;28;20255;-73
2021/01/02 12:16:44;;;;;;;10.10;9.00;;;2.50;99.90;;;;;;5026265;28;20179;-72
2021/01/02 12:19:14;;;;;;;11.20;10.10;;;2.50;99.90;;;;;;5031814;28;20178;-71
2021/01/02 12:21:40;;;;;;;11.20;9.87;;;2.50;99.90;;;;;;5019036;28;20237;-73
2021/01/02 12:24:07;;;;;;;10.67;9.57;;;2.50;99.90;;;;;;5034129;28;20178;-71
2021/01/02 12:26:33;;;;;;;11.07;9.23;;;2.50;99.90;;;;;;5030585;28;20175;-72
2021/01/02 12:28:59;;;;;;;10.77;9.63;;;2.60;99.90;;;;;;5047348;28;20174;-72
2021/01/02 12:31:27;;;;;;;27.03;16.97;;;2.50;99.90;;;;;;5052484;28;20679;-72
2021/01/02 12:33:53;;;;;;;10.27;9.10;;;2.50;99.90;;;;;;5052524;28;20170;-73
2021/01/02 12:36:30;;;;;;;10.47;9.37;;;2.50;99.90;;;;;;5037134;28;20210;-72
2021/01/02 12:38:56;;;;;;;10.40;9.00;;;2.60;99.90;;;;;;5046839;28;20177;-72
2021/01/02 12:41:22;;;;;;;11.27;9.20;;;2.50;99.90;;;;;;5056214;28;20569;-72
2021/01/02 12:43:47;;;;;;;11.93;9.60;;;2.50;99.90;;;;;;5049964;28;20543;-73
2021/01/02 12:46:15;;;;;;;10.17;9.17;;;2.40;99.90;;;;;;5054126;28;20174;-73
2021/01/02 12:48:40;;;;;;;9.37;8.17;;;2.40;99.90;;;;;;5047694;28;20652;-72
2021/01/02 12:51:07;;;;;;;9.23;8.17;;;2.40;99.90;;;;;;5055792;28;20220;-72
2021/01/02 12:53:34;;;;;;;16.20;12.10;;;2.50;99.90;;;;;;5056450;28;20171;-72
2021/01/02 12:55:59;;;;;;;17.37;13.33;;;2.60;99.90;;;;;;5041635;28;20252;-73
2021/01/02 12:58:25;;;;;;;10.17;9.07;;;2.60;99.90;;;;;;5033625;28;20179;-74